sensor_id;sensor_type;location;lat;lon;timestamp;P1;durP1;ratioP1;P2;durP2;ratioP2
47239;SDS011;32978;53.586;10.052;2023-10-13T00:00:29;9.52;;;7.00;;
47239;SDS011;32978;53.586;10.052;2023-10-13T00:05:29;8.40;;;6.75;;
47239;SDS011;32978;53.586;10.052;2023-10-13T00:10:27;11.43;;;7.82;;
47239;SDS011;32978;53.586;10.052;2023-10-13T00:15:24;9.15;;;7.03;;
47239;SDS011;32978;53.586;10.052;2023-10-13T00:20:24;13.85;;;7.47;;
47239;SDS011;32978;53.586;10.052;2023-10-13T00:25:34;12.23;;;7.88;;
47239;SDS011;32978;53.586;10.052;2023-10-13T00:30:45;13.77;;;8.85;;
47239;SDS011;32978;53.586;10.052;2023-10-13T00:35:46;11.40;;;7.47;;
47239;SDS011;32978;53.586;10.052;2023-10-13T00:40:43;10.27;;;7.95;;
47239;SDS011;32978;53.586;10.052;2023-10-13T00:45:41;14.27;;;8.43;;
47239;SDS011;32978;53.586;10.052;2023-10-13T00:50:37;15.18;;;8.73;;
47239;SDS011;32978;53.586;10.052;2023-10-13T00:55:34;12.30;;;9.00;;
47239;SDS011;32978;53.586;10.052;2023-10-13T01:00:30;12.10;;;8.68;;
47239;SDS011;32978;53.586;10.052;2023-10-13T01:05:26;18.25;;;8.77;;
47239;SDS011;32978;53.586;10.052;2023-10-13T01:10:23;15.25;;;8.82;;
47239;SDS011;32978;53.586;10.052;2023-10-13T01:15:24;13.60;;;8.85;;
47239;SDS011;32978;53.586;10.052;2023-10-13T01:20:26;16.97;;;10.47;;
47239;SDS011;32978;53.586;10.052;2023-10-13T01:25:22;15.60;;;10.15;;
47239;SDS011;32978;53.586;10.052;2023-10-13T01:30:21;20.08;;;10.32;;
47239;SDS011;32978;53.586;10.052;2023-10-13T01:35:22;19.40;;;10.73;;
47239;SDS011;32978;53.586;10.052;2023-10-13T01:40:31;17.65;;;11.10;;
47239;SDS011;32978;53.586;10.052;2023-10-13T01:45:30;20.77;;;11.55;;
47239;SDS011;32978;53.586;10.052;2023-10-13T01:50:26;14.88;;;11.73;;
47239;SDS011;32978;53.586;10.052;2023-10-13T01:55:26;14.27;;;11.07;;
47239;SDS011;32978;53.586;10.052;2023-10-13T02:00:24;19.83;;;12.60;;
47239;SDS011;32978;53.586;10.052;2023-10-13T02:05:21;18.05;;;12.13;;
47239;SDS011;32978;53.586;10.052;2023-10-13T02:10:23;16.50;;;13.10;;
47239;SDS011;32978;53.586;10.052;2023-10-13T02:15:23;26.90;;;13.65;;
47239;SDS011;32978;53.586;10.052;2023-10-13T02:20:22;23.13;;;13.50;;
47239;SDS011;32978;53.586;10.052;2023-10-13T02:25:21;21.17;;;12.98;;
47239;SDS011;32978;53.586;10.052;2023-10-13T02:30:37;23.98;;;13.63;;
47239;SDS011;32978;53.586;10.052;2023-10-13T02:35:33;18.30;;;14.00;;
47239;SDS011;32978;53.586;10.052;2023-10-13T02:40:34;17.92;;;13.75;;
47239;SDS011;32978;53.586;10.052;2023-10-13T02:45:34;25.02;;;14.18;;
47239;SDS011;32978;53.586;10.052;2023-10-13T02:50:33;31.73;;;15.73;;
47239;SDS011;32978;53.586;10.052;2023-10-13T02:55:29;29.23;;;15.82;;
47239;SDS011;32978;53.586;10.052;2023-10-13T03:00:27;20.65;;;15.75;;
47239;SDS011;32978;53.586;10.052;2023-10-13T03:05:28;23.00;;;16.52;;
47239;SDS011;32978;53.586;10.052;2023-10-13T03:10:27;26.63;;;17.02;;
47239;SDS011;32978;53.586;10.052;2023-10-13T03:15:25;27.13;;;16.73;;
47239;SDS011;32978;53.586;10.052;2023-10-13T03:20:27;19.38;;;16.35;;
47239;SDS011;32978;53.586;10.052;2023-10-13T03:25:30;22.25;;;16.42;;
47239;SDS011;32978;53.586;10.052;2023-10-13T03:30:33;22.50;;;18.02;;
47239;SDS011;32978;53.586;10.052;2023-10-13T03:35:35;22.90;;;17.90;;
47239;SDS011;32978;53.586;10.052;2023-10-13T03:40:35;21.45;;;16.35;;
47239;SDS011;32978;53.586;10.052;2023-10-13T03:45:32;18.08;;;15.02;;
47239;SDS011;32978;53.586;10.052;2023-10-13T03:50:33;22.15;;;15.73;;
47239;SDS011;32978;53.586;10.052;2023-10-13T03:55:31;16.60;;;14.35;;
47239;SDS011;32978;53.586;10.052;2023-10-13T04:00:31;16.85;;;15.05;;
47239;SDS011;32978;53.586;10.052;2023-10-13T04:05:28;15.13;;;13.45;;
47239;SDS011;32978;53.586;10.052;2023-10-13T04:10:36;22.45;;;16.35;;
47239;SDS011;32978;53.586;10.052;2023-10-13T04:15:48;16.88;;;15.15;;
47239;SDS011;32978;53.586;10.052;2023-10-13T04:21:03;20.55;;;15.93;;
47239;SDS011;32978;53.586;10.052;2023-10-13T04:26:06;19.75;;;17.27;;
47239;SDS011;32978;53.586;10.052;2023-10-13T04:31:08;20.10;;;17.48;;
47239;SDS011;32978;53.586;10.052;2023-10-13T04:36:21;20.52;;;17.67;;
47239;SDS011;32978;53.586;10.052;2023-10-13T04:46:27;26.27;;;21.00;;
47239;SDS011;32978;53.586;10.052;2023-10-13T04:51:43;25.25;;;19.05;;
47239;SDS011;32978;53.586;10.052;2023-10-13T04:57:18;25.45;;;20.30;;
47239;SDS011;32978;53.586;10.052;2023-10-13T05:02:15;28.10;;;20.92;;
47239;SDS011;32978;53.586;10.052;2023-10-13T05:07:31;28.17;;;21.48;;
47239;SDS011;32978;53.586;10.052;2023-10-13T05:12:46;28.17;;;22.10;;
47239;SDS011;32978;53.586;10.052;2023-10-13T05:18:01;30.65;;;23.38;;
47239;SDS011;32978;53.586;10.052;2023-10-13T05:23:27;31.95;;;24.13;;
47239;SDS011;32978;53.586;10.052;2023-10-13T05:28:42;33.50;;;25.00;;
47239;SDS011;32978;53.586;10.052;2023-10-13T05:34:10;36.10;;;24.60;;
47239;SDS011;32978;53.586;10.052;2023-10-13T05:39:24;35.13;;;25.10;;
47239;SDS011;32978;53.586;10.052;2023-10-13T05:44:40;31.52;;;25.83;;
47239;SDS011;32978;53.586;10.052;2023-10-13T05:49:52;37.55;;;27.75;;
47239;SDS011;32978;53.586;10.052;2023-10-13T05:55:08;41.63;;;29.60;;
47239;SDS011;32978;53.586;10.052;2023-10-13T06:00:23;32.47;;;29.02;;
47239;SDS011;32978;53.586;10.052;2023-10-13T06:05:39;40.38;;;32.33;;
47239;SDS011;32978;53.586;10.052;2023-10-13T06:11:00;40.63;;;31.08;;
47239;SDS011;32978;53.586;10.052;2023-10-13T06:16:16;40.83;;;32.35;;
47239;SDS011;32978;53.586;10.052;2023-10-13T06:21:32;45.88;;;33.55;;
47239;SDS011;32978;53.586;10.052;2023-10-13T06:26:47;38.90;;;31.88;;
47239;SDS011;32978;53.586;10.052;2023-10-13T06:32:02;41.75;;;33.75;;
47239;SDS011;32978;53.586;10.052;2023-10-13T06:37:16;40.75;;;32.72;;
47239;SDS011;32978;53.586;10.052;2023-10-13T06:42:19;43.83;;;34.17;;
47239;SDS011;32978;53.586;10.052;2023-10-13T06:47:15;45.88;;;33.50;;
47239;SDS011;32978;53.586;10.052;2023-10-13T06:52:11;41.28;;;34.10;;
47239;SDS011;32978;53.586;10.052;2023-10-13T06:57:09;48.40;;;33.97;;
47239;SDS011;32978;53.586;10.052;2023-10-13T07:02:10;44.20;;;35.03;;
47239;SDS011;32978;53.586;10.052;2023-10-13T07:07:23;45.92;;;36.08;;
47239;SDS011;32978;53.586;10.052;2023-10-13T07:12:20;44.47;;;36.25;;
47239;SDS011;32978;53.586;10.052;2023-10-13T07:17:19;46.95;;;34.58;;
47239;SDS011;32978;53.586;10.052;2023-10-13T07:22:22;42.42;;;36.03;;
47239;SDS011;32978;53.586;10.052;2023-10-13T07:27:20;44.53;;;36.88;;
47239;SDS011;32978;53.586;10.052;2023-10-13T07:32:21;40.73;;;33.27;;
47239;SDS011;32978;53.586;10.052;2023-10-13T07:37:22;46.85;;;34.97;;
47239;SDS011;32978;53.586;10.052;2023-10-13T07:42:25;37.08;;;33.08;;
47239;SDS011;32978;53.586;10.052;2023-10-13T07:47:27;37.88;;;31.50;;
47239;SDS011;32978;53.586;10.052;2023-10-13T07:52:27;34.70;;;29.92;;
47239;SDS011;32978;53.586;10.052;2023-10-13T07:57:33;39.42;;;29.40;;
47239;SDS011;32978;53.586;10.052;2023-10-13T08:02:29;30.00;;;26.80;;
47239;SDS011;32978;53.586;10.052;2023-10-13T08:07:44;31.98;;;25.88;;
47239;SDS011;32978;53.586;10.052;2023-10-13T08:12:42;29.30;;;25.48;;
47239;SDS011;32978;53.586;10.052;2023-10-13T08:17:40;26.65;;;23.90;;
47239;SDS011;32978;53.586;10.052;2023-10-13T08:22:40;26.40;;;23.48;;
47239;SDS011;32978;53.586;10.052;2023-10-13T08:27:43;24.73;;;22.23;;
47239;SDS011;32978;53.586;10.052;2023-10-13T08:32:46;22.80;;;20.40;;
47239;SDS011;32978;53.586;10.052;2023-10-13T08:37:51;24.50;;;22.10;;
47239;SDS011;32978;53.586;10.052;2023-10-13T08:42:47;26.00;;;22.92;;
47239;SDS011;32978;53.586;10.052;2023-10-13T08:47:44;21.35;;;19.25;;
47239;SDS011;32978;53.586;10.052;2023-10-13T08:52:49;21.08;;;18.70;;
47239;SDS011;32978;53.586;10.052;2023-10-13T08:57:52;18.23;;;16.17;;
47239;SDS011;32978;53.586;10.052;2023-10-13T09:02:49;17.58;;;15.77;;
47239;SDS011;32978;53.586;10.052;2023-10-13T09:08:24;17.08;;;15.35;;
47239;SDS011;32978;53.586;10.052;2023-10-13T09:13:35;14.60;;;13.20;;
47239;SDS011;32978;53.586;10.052;2023-10-13T09:18:40;12.95;;;11.75;;
47239;SDS011;32978;53.586;10.052;2023-10-13T09:23:46;13.77;;;11.98;;
47239;SDS011;32978;53.586;10.052;2023-10-13T09:28:44;11.98;;;10.90;;
47239;SDS011;32978;53.586;10.052;2023-10-13T09:33:41;13.52;;;11.73;;
47239;SDS011;32978;53.586;10.052;2023-10-13T09:38:46;11.65;;;10.45;;
47239;SDS011;32978;53.586;10.052;2023-10-13T09:44:06;11.73;;;10.52;;
47239;SDS011;32978;53.586;10.052;2023-10-13T09:49:10;12.68;;;11.35;;
47239;SDS011;32978;53.586;10.052;2023-10-13T09:54:18;11.02;;;9.93;;
47239;SDS011;32978;53.586;10.052;2023-10-13T09:59:41;14.55;;;11.02;;
47239;SDS011;32978;53.586;10.052;2023-10-13T10:04:40;17.75;;;12.00;;
47239;SDS011;32978;53.586;10.052;2023-10-13T10:09:55;14.10;;;11.57;;
47239;SDS011;32978;53.586;10.052;2023-10-13T10:19:58;14.68;;;11.27;;
47239;SDS011;32978;53.586;10.052;2023-10-13T10:24:58;16.33;;;12.15;;
47239;SDS011;32978;53.586;10.052;2023-10-13T10:29:56;11.55;;;10.45;;
47239;SDS011;32978;53.586;10.052;2023-10-13T10:35:01;13.27;;;11.50;;
47239;SDS011;32978;53.586;10.052;2023-10-13T10:39:59;13.48;;;11.98;;
47239;SDS011;32978;53.586;10.052;2023-10-13T10:44:55;14.07;;;12.63;;
47239;SDS011;32978;53.586;10.052;2023-10-13T10:49:52;13.43;;;12.00;;
47239;SDS011;32978;53.586;10.052;2023-10-13T10:54:58;13.88;;;12.45;;
47239;SDS011;32978;53.586;10.052;2023-10-13T10:59:54;13.98;;;11.90;;
47239;SDS011;32978;53.586;10.052;2023-10-13T11:05:08;18.70;;;13.27;;
47239;SDS011;32978;53.586;10.052;2023-10-13T11:10:07;15.68;;;11.75;;
47239;SDS011;32978;53.586;10.052;2023-10-13T11:15:11;14.65;;;11.95;;
47239;SDS011;32978;53.586;10.052;2023-10-13T11:20:18;16.88;;;12.90;;
47239;SDS011;32978;53.586;10.052;2023-10-13T11:25:23;15.77;;;12.07;;
47239;SDS011;32978;53.586;10.052;2023-10-13T11:30:19;19.83;;;12.25;;
47239;SDS011;32978;53.586;10.052;2023-10-13T11:35:16;15.82;;;12.75;;
47239;SDS011;32978;53.586;10.052;2023-10-13T11:40:25;15.70;;;12.80;;
47239;SDS011;32978;53.586;10.052;2023-10-13T11:45:41;20.02;;;12.70;;
47239;SDS011;32978;53.586;10.052;2023-10-13T11:51:14;16.23;;;12.18;;
47239;SDS011;32978;53.586;10.052;2023-10-13T11:56:13;14.88;;;12.25;;
47239;SDS011;32978;53.586;10.052;2023-10-13T12:01:10;14.68;;;13.18;;
47239;SDS011;32978;53.586;10.052;2023-10-13T12:06:09;13.02;;;11.50;;
47239;SDS011;32978;53.586;10.052;2023-10-13T12:11:24;16.85;;;11.57;;
47239;SDS011;32978;53.586;10.052;2023-10-13T12:16:26;18.60;;;11.65;;
47239;SDS011;32978;53.586;10.052;2023-10-13T12:21:30;13.68;;;10.20;;
47239;SDS011;32978;53.586;10.052;2023-10-13T12:26:27;13.50;;;10.95;;
47239;SDS011;32978;53.586;10.052;2023-10-13T12:31:28;10.88;;;9.23;;
47239;SDS011;32978;53.586;10.052;2023-10-13T12:36:25;16.02;;;10.05;;
47239;SDS011;32978;53.586;10.052;2023-10-13T12:41:27;13.65;;;10.75;;
47239;SDS011;32978;53.586;10.052;2023-10-13T12:46:42;14.13;;;9.43;;
47239;SDS011;32978;53.586;10.052;2023-10-13T12:51:57;15.48;;;10.18;;
47239;SDS011;32978;53.586;10.052;2023-10-13T12:56:53;23.90;;;9.60;;
47239;SDS011;32978;53.586;10.052;2023-10-13T13:01:53;14.82;;;9.52;;
47239;SDS011;32978;53.586;10.052;2023-10-13T13:06:49;12.70;;;9.95;;
47239;SDS011;32978;53.586;10.052;2023-10-13T13:11:46;17.98;;;10.40;;
47239;SDS011;32978;53.586;10.052;2023-10-13T13:16:45;14.90;;;11.02;;
47239;SDS011;32978;53.586;10.052;2023-10-13T13:21:44;16.38;;;10.73;;
47239;SDS011;32978;53.586;10.052;2023-10-13T13:26:41;13.73;;;11.20;;
47239;SDS011;32978;53.586;10.052;2023-10-13T13:31:38;19.83;;;10.73;;
47239;SDS011;32978;53.586;10.052;2023-10-13T13:36:38;17.38;;;10.25;;
47239;SDS011;32978;53.586;10.052;2023-10-13T13:41:36;17.00;;;9.98;;
47239;SDS011;32978;53.586;10.052;2023-10-13T13:46:34;15.10;;;9.60;;
47239;SDS011;32978;53.586;10.052;2023-10-13T13:51:37;15.00;;;10.02;;
47239;SDS011;32978;53.586;10.052;2023-10-13T13:56:34;17.13;;;10.75;;
47239;SDS011;32978;53.586;10.052;2023-10-13T14:01:35;13.77;;;9.13;;
47239;SDS011;32978;53.586;10.052;2023-10-13T14:06:33;15.95;;;10.13;;
47239;SDS011;32978;53.586;10.052;2023-10-13T14:11:31;13.15;;;10.00;;
47239;SDS011;32978;53.586;10.052;2023-10-13T14:16:36;16.67;;;11.57;;
47239;SDS011;32978;53.586;10.052;2023-10-13T14:21:33;17.00;;;9.43;;
47239;SDS011;32978;53.586;10.052;2023-10-13T14:26:31;19.38;;;10.15;;
47239;SDS011;32978;53.586;10.052;2023-10-13T14:31:30;20.05;;;9.90;;
47239;SDS011;32978;53.586;10.052;2023-10-13T14:36:26;14.43;;;10.55;;
47239;SDS011;32978;53.586;10.052;2023-10-13T14:41:24;20.58;;;10.63;;
47239;SDS011;32978;53.586;10.052;2023-10-13T14:46:21;16.50;;;11.13;;
47239;SDS011;32978;53.586;10.052;2023-10-13T14:51:19;20.40;;;10.55;;
47239;SDS011;32978;53.586;10.052;2023-10-13T14:56:16;16.67;;;10.57;;
47239;SDS011;32978;53.586;10.052;2023-10-13T15:01:13;15.75;;;10.40;;
47239;SDS011;32978;53.586;10.052;2023-10-13T15:06:18;18.17;;;10.45;;
47239;SDS011;32978;53.586;10.052;2023-10-13T15:11:14;12.63;;;9.00;;
47239;SDS011;32978;53.586;10.052;2023-10-13T15:16:14;18.45;;;9.75;;
47239;SDS011;32978;53.586;10.052;2023-10-13T15:26:09;17.20;;;10.27;;
47239;SDS011;32978;53.586;10.052;2023-10-13T15:31:12;16.15;;;9.38;;
47239;SDS011;32978;53.586;10.052;2023-10-13T15:36:20;17.85;;;9.30;;
47239;SDS011;32978;53.586;10.052;2023-10-13T15:41:23;16.75;;;9.90;;
47239;SDS011;32978;53.586;10.052;2023-10-13T15:46:23;18.52;;;9.70;;
47239;SDS011;32978;53.586;10.052;2023-10-13T15:51:39;16.70;;;10.05;;
47239;SDS011;32978;53.586;10.052;2023-10-13T15:56:35;17.95;;;9.75;;
47239;SDS011;32978;53.586;10.052;2023-10-13T16:01:32;14.18;;;9.75;;
47239;SDS011;32978;53.586;10.052;2023-10-13T16:06:29;16.95;;;9.75;;
47239;SDS011;32978;53.586;10.052;2023-10-13T16:11:26;16.92;;;9.40;;
47239;SDS011;32978;53.586;10.052;2023-10-13T16:16:23;14.27;;;9.00;;
47239;SDS011;32978;53.586;10.052;2023-10-13T16:21:19;13.32;;;10.10;;
47239;SDS011;32978;53.586;10.052;2023-10-13T16:26:19;19.50;;;10.23;;
47239;SDS011;32978;53.586;10.052;2023-10-13T16:31:19;19.63;;;8.65;;
47239;SDS011;32978;53.586;10.052;2023-10-13T16:36:19;22.38;;;10.20;;
47239;SDS011;32978;53.586;10.052;2023-10-13T16:41:18;14.98;;;9.60;;
47239;SDS011;32978;53.586;10.052;2023-10-13T16:46:14;20.80;;;9.90;;
47239;SDS011;32978;53.586;10.052;2023-10-13T16:51:14;17.48;;;10.13;;
47239;SDS011;32978;53.586;10.052;2023-10-13T16:56:11;17.98;;;10.82;;
47239;SDS011;32978;53.586;10.052;2023-10-13T17:01:11;17.08;;;10.77;;
47239;SDS011;32978;53.586;10.052;2023-10-13T17:06:08;12.32;;;9.75;;
47239;SDS011;32978;53.586;10.052;2023-10-13T17:16:12;13.60;;;10.57;;
47239;SDS011;32978;53.586;10.052;2023-10-13T17:21:19;19.23;;;11.13;;
47239;SDS011;32978;53.586;10.052;2023-10-13T17:26:20;13.43;;;9.18;;
47239;SDS011;32978;53.586;10.052;2023-10-13T17:36:15;19.13;;;11.27;;
47239;SDS011;32978;53.586;10.052;2023-10-13T17:41:12;14.77;;;11.52;;
47239;SDS011;32978;53.586;10.052;2023-10-13T17:46:09;13.95;;;10.27;;
47239;SDS011;32978;53.586;10.052;2023-10-13T17:51:09;18.92;;;9.52;;
47239;SDS011;32978;53.586;10.052;2023-10-13T17:56:09;15.02;;;10.45;;
47239;SDS011;32978;53.586;10.052;2023-10-13T18:01:09;15.07;;;8.57;;
47239;SDS011;32978;53.586;10.052;2023-10-13T18:06:14;9.40;;;7.47;;
47239;SDS011;32978;53.586;10.052;2023-10-13T18:11:12;9.65;;;7.55;;
47239;SDS011;32978;53.586;10.052;2023-10-13T18:16:16;10.95;;;7.47;;
47239;SDS011;32978;53.586;10.052;2023-10-13T18:21:13;10.00;;;6.80;;
47239;SDS011;32978;53.586;10.052;2023-10-13T18:26:11;13.00;;;7.60;;
47239;SDS011;32978;53.586;10.052;2023-10-13T18:31:12;12.45;;;7.13;;
47239;SDS011;32978;53.586;10.052;2023-10-13T18:36:20;12.95;;;6.88;;
47239;SDS011;32978;53.586;10.052;2023-10-13T18:41:21;16.70;;;7.30;;
47239;SDS011;32978;53.586;10.052;2023-10-13T18:46:22;11.00;;;7.53;;
47239;SDS011;32978;53.586;10.052;2023-10-13T18:51:22;18.25;;;7.68;;
47239;SDS011;32978;53.586;10.052;2023-10-13T18:56:19;15.98;;;8.25;;
47239;SDS011;32978;53.586;10.052;2023-10-13T19:01:17;8.40;;;7.07;;
47239;SDS011;32978;53.586;10.052;2023-10-13T19:06:14;12.95;;;7.88;;
47239;SDS011;32978;53.586;10.052;2023-10-13T19:11:14;11.38;;;7.82;;
47239;SDS011;32978;53.586;10.052;2023-10-13T19:16:13;16.05;;;7.80;;
47239;SDS011;32978;53.586;10.052;2023-10-13T19:21:10;9.95;;;7.68;;
47239;SDS011;32978;53.586;10.052;2023-10-13T19:26:14;9.93;;;8.30;;
47239;SDS011;32978;53.586;10.052;2023-10-13T19:31:10;18.33;;;8.70;;
47239;SDS011;32978;53.586;10.052;2023-10-13T19:36:14;12.77;;;8.32;;
47239;SDS011;32978;53.586;10.052;2023-10-13T19:41:13;17.80;;;9.77;;
47239;SDS011;32978;53.586;10.052;2023-10-13T19:46:13;14.45;;;8.55;;
47239;SDS011;32978;53.586;10.052;2023-10-13T19:51:11;16.00;;;8.15;;
47239;SDS011;32978;53.586;10.052;2023-10-13T19:56:11;18.13;;;8.75;;
47239;SDS011;32978;53.586;10.052;2023-10-13T20:01:12;14.63;;;8.93;;
47239;SDS011;32978;53.586;10.052;2023-10-13T20:06:31;19.23;;;7.80;;
47239;SDS011;32978;53.586;10.052;2023-10-13T20:11:30;15.95;;;7.60;;
47239;SDS011;32978;53.586;10.052;2023-10-13T20:16:26;19.88;;;8.35;;
47239;SDS011;32978;53.586;10.052;2023-10-13T20:21:29;18.30;;;8.05;;
47239;SDS011;32978;53.586;10.052;2023-10-13T20:26:26;10.35;;;7.68;;
47239;SDS011;32978;53.586;10.052;2023-10-13T20:31:23;14.85;;;7.63;;
47239;SDS011;32978;53.586;10.052;2023-10-13T20:36:23;13.07;;;8.20;;
47239;SDS011;32978;53.586;10.052;2023-10-13T20:41:21;18.70;;;8.30;;
47239;SDS011;32978;53.586;10.052;2023-10-13T20:46:18;11.70;;;8.25;;
47239;SDS011;32978;53.586;10.052;2023-10-13T20:51:14;14.02;;;7.78;;
47239;SDS011;32978;53.586;10.052;2023-10-13T20:56:11;9.65;;;7.70;;
47239;SDS011;32978;53.586;10.052;2023-10-13T21:01:14;11.18;;;7.72;;
47239;SDS011;32978;53.586;10.052;2023-10-13T21:06:11;14.10;;;7.55;;
47239;SDS011;32978;53.586;10.052;2023-10-13T21:11:07;11.10;;;7.28;;
47239;SDS011;32978;53.586;10.052;2023-10-13T21:16:04;10.48;;;8.00;;
47239;SDS011;32978;53.586;10.052;2023-10-13T21:21:06;16.23;;;8.30;;
47239;SDS011;32978;53.586;10.052;2023-10-13T21:26:02;17.10;;;8.05;;
47239;SDS011;32978;53.586;10.052;2023-10-13T21:31:08;12.10;;;8.18;;
47239;SDS011;32978;53.586;10.052;2023-10-13T21:36:08;14.05;;;7.70;;
47239;SDS011;32978;53.586;10.052;2023-10-13T21:41:17;13.88;;;8.00;;
47239;SDS011;32978;53.586;10.052;2023-10-13T21:46:17;12.07;;;7.07;;
47239;SDS011;32978;53.586;10.052;2023-10-13T21:51:19;7.43;;;6.65;;
47239;SDS011;32978;53.586;10.052;2023-10-13T21:56:16;9.07;;;6.68;;
47239;SDS011;32978;53.586;10.052;2023-10-13T22:01:12;8.82;;;6.00;;
47239;SDS011;32978;53.586;10.052;2023-10-13T22:06:19;11.80;;;6.72;;
47239;SDS011;32978;53.586;10.052;2023-10-13T22:11:18;14.38;;;6.47;;
47239;SDS011;32978;53.586;10.052;2023-10-13T22:16:16;10.65;;;7.68;;
47239;SDS011;32978;53.586;10.052;2023-10-13T22:21:14;8.80;;;7.25;;
47239;SDS011;32978;53.586;10.052;2023-10-13T22:26:10;10.68;;;7.60;;
47239;SDS011;32978;53.586;10.052;2023-10-13T22:31:08;11.60;;;9.05;;
47239;SDS011;32978;53.586;10.052;2023-10-13T22:36:07;13.15;;;7.60;;
47239;SDS011;32978;53.586;10.052;2023-10-13T22:41:06;12.50;;;7.55;;
47239;SDS011;32978;53.586;10.052;2023-10-13T22:46:02;10.73;;;8.68;;
47239;SDS011;32978;53.586;10.052;2023-10-13T22:50:59;15.35;;;7.90;;
47239;SDS011;32978;53.586;10.052;2023-10-13T22:55:56;12.98;;;8.43;;
47239;SDS011;32978;53.586;10.052;2023-10-13T23:00:54;12.57;;;8.85;;
47239;SDS011;32978;53.586;10.052;2023-10-13T23:05:51;12.27;;;9.13;;
47239;SDS011;32978;53.586;10.052;2023-10-13T23:10:50;18.67;;;8.52;;
47239;SDS011;32978;53.586;10.052;2023-10-13T23:15:50;13.65;;;10.60;;
47239;SDS011;32978;53.586;10.052;2023-10-13T23:20:50;18.00;;;12.20;;
47239;SDS011;32978;53.586;10.052;2023-10-13T23:25:47;15.75;;;12.00;;
47239;SDS011;32978;53.586;10.052;2023-10-13T23:30:43;16.15;;;12.25;;
47239;SDS011;32978;53.586;10.052;2023-10-13T23:35:41;14.88;;;12.32;;
47239;SDS011;32978;53.586;10.052;2023-10-13T23:40:40;17.92;;;11.23;;
47239;SDS011;32978;53.586;10.052;2023-10-13T23:45:40;13.75;;;10.80;;
47239;SDS011;32978;53.586;10.052;2023-10-13T23:50:39;13.80;;;11.15;;
47239;SDS011;32978;53.586;10.052;2023-10-13T23:55:36;19.45;;;12.45;;
